Time;durP1;ratioP1;P1;durP2;ratioP2;P2;SDS_P1;SDS_P2;PMS_P1;PMS_P2;Temp;Humidity;BMP_temperature;BMP_pressure;BME280_temperature;BME280_humidity;BME280_pressure;Samples;Min_cycle;Max_cycle;Signal;HPM_P1;HPM_P2
2022/12/07 00:00:42;;;;;;;;;;;3.50;99.90;;;;;;5032623;28;19925;-76
2022/12/07 00:03:08;;;;;;;;;;;3.10;99.90;;;;;;5039906;28;19924;-76
2022/12/07 00:05:34;;;;;;;;;;;3.40;99.90;;;;;;5057562;28;19927;-75
2022/12/07 00:07:59;;;;;;;;;;;3.00;99.90;;;;;;5038460;28;20268;-76
2022/12/07 00:10:25;;;;;;;;;;;3.00;99.90;;;;;;5058099;28;20015;-76
2022/12/07 00:12:50;;;;;;;;;;;3.70;99.90;;;;;;5040192;28;19929;-76
2022/12/07 00:15:16;;;;;;;;;;;2.90;99.90;;;;;;5040434;28;19928;-76
2022/12/07 00:17:41;;;;;;;;;;;2.90;99.90;;;;;;5057453;28;19995;-76
2022/12/07 00:20:07;;;;;;;;;;;3.10;99.90;;;;;;5052004;28;19920;-76
2022/12/07 00:22:32;;;;;;;;;;;2.90;99.90;;;;;;5039569;28;19936;-76
2022/12/07 00:24:58;;;;;;;;;;;2.80;99.90;;;;;;5041365;28;19925;-76
2022/12/07 00:27:24;;;;;;;;;;;2.80;99.90;;;;;;5059210;28;20002;-76
2022/12/07 00:29:49;;;;;;;;;;;1.70;99.90;;;;;;5037285;28;19971;-76
2022/12/07 00:32:15;;;;;;;;;;;3.10;99.90;;;;;;5052432;28;19927;-76
2022/12/07 00:34:40;;;;;;;;;;;2.70;99.90;;;;;;5038071;28;20024;-76
2022/12/07 00:37:06;;;;;;;;;;;2.70;99.90;;;;;;5038621;28;19920;-76
2022/12/07 00:39:31;;;;;;;;;;;2.70;99.90;;;;;;5031530;28;20382;-76
2022/12/07 00:41:57;;;;;;;;;;;2.70;99.90;;;;;;5026930;28;19967;-75
2022/12/07 00:44:22;;;;;;;;;;;2.70;99.90;;;;;;5042854;28;19995;-76
2022/12/07 00:46:48;;;;;;;;;;;2.80;99.90;;;;;;5038674;28;19960;-76
2022/12/07 00:49:14;;;;;;;;;;;3.20;99.90;;;;;;5021846;28;19925;-76
2022/12/07 00:51:39;;;;;;;;;;;3.00;99.90;;;;;;5030966;28;19921;-76
2022/12/07 00:54:05;;;;;;;;;;;2.90;99.90;;;;;;5034502;28;19920;-76
2022/12/07 00:56:30;;;;;;;;;;;2.90;99.90;;;;;;5052317;28;20195;-76
2022/12/07 00:58:57;;;;;;;;;;;2.90;99.90;;;;;;5020434;28;20405;-76
2022/12/07 01:01:24;;;;;;;;;;;3.40;99.90;;;;;;5052744;28;20019;-76
2022/12/07 01:03:49;;;;;;;;;;;2.80;99.90;;;;;;5054299;28;19932;-76
2022/12/07 01:06:16;;;;;;;;;;;2.80;99.90;;;;;;5051859;28;19924;-77
2022/12/07 01:08:41;;;;;;;;;;;2.80;99.90;;;;;;5043584;28;20019;-77
2022/12/07 01:11:09;;;;;;;;;;;2.80;99.90;;;;;;5034308;28;19929;-76
2022/12/07 01:13:35;;;;;;;;;;;2.80;99.90;;;;;;5049822;28;20034;-76
2022/12/07 01:16:01;;;;;;;;;;;2.80;99.90;;;;;;5054089;28;19955;-76
2022/12/07 01:18:28;;;;;;;;;;;2.80;99.90;;;;;;5051312;28;19920;-76
2022/12/07 01:21:13;;;;;;;;;;;2.70;99.90;;;;;;5044552;28;19935;-76
2022/12/07 01:23:39;;;;;;;;;;;2.70;99.90;;;;;;5040495;28;19925;-76
2022/12/07 01:26:06;;;;;;;;;;;2.70;99.90;;;;;;5033350;28;19928;-76
2022/12/07 01:28:32;;;;;;;;;;;2.70;99.90;;;;;;5033150;28;19981;-76
2022/12/07 01:31:03;;;;;;;;;;;2.70;99.90;;;;;;5051667;28;20381;-76
2022/12/07 01:33:30;;;;;;;;;;;3.00;99.90;;;;;;5034116;28;19921;-76
2022/12/07 01:36:05;;;;;;;;;;;3.30;99.90;;;;;;5052692;28;19921;-75
2022/12/07 01:38:31;;;;;;;;;;;2.70;99.90;;;;;;5043321;28;19928;-76
2022/12/07 01:40:58;;;;;;;;;;;2.70;99.90;;;;;;5052634;28;19920;-76
2022/12/07 01:43:25;;;;;;;;;;;2.60;99.90;;;;;;5039324;28;19932;-76
2022/12/07 01:45:51;;;;;;;;;;;2.60;99.90;;;;;;5046337;28;19950;-76
2022/12/07 01:48:18;;;;;;;;;;;2.50;99.90;;;;;;5054368;28;20293;-76
2022/12/07 01:50:45;;;;;;;;;;;3.20;99.90;;;;;;5029650;28;19971;-76
2022/12/07 01:53:10;;;;;;;;;;;2.50;99.90;;;;;;5031894;28;20098;-76
2022/12/07 01:55:38;;;;;;;;;;;3.40;99.90;;;;;;5053859;28;20003;-77
2022/12/07 01:58:04;;;;;;;;;;;2.70;99.90;;;;;;5044983;28;20472;-77
2022/12/07 02:00:30;;;;;;;;;;;2.70;99.90;;;;;;5033961;28;20019;-77
2022/12/07 02:02:59;;;;;;;;;;;2.30;99.90;;;;;;5036109;28;19952;-76
2022/12/07 02:05:26;;;;;;;;;;;2.30;99.90;;;;;;5049893;28;19964;-77
2022/12/07 02:07:52;;;;;;;;;;;2.30;99.90;;;;;;5035433;28;19928;-76
2022/12/07 02:10:22;;;;;;;;;;;2.30;99.90;;;;;;5052108;28;20350;-77
2022/12/07 02:12:56;;;;;;;;;;;2.30;99.90;;;;;;5045526;28;19943;-76
2022/12/07 02:15:23;;;;;;;;;;;2.30;99.90;;;;;;5045075;28;19999;-77
2022/12/07 02:18:00;;;;;;;;;;;2.30;99.90;;;;;;5051272;28;19929;-77
2022/12/07 02:20:49;;;;;;;;;;;2.30;99.90;;;;;;5048274;28;19956;-76
2022/12/07 02:23:30;;;;;;;;;;;2.40;99.90;;;;;;5013779;28;20327;-77
2022/12/07 02:26:09;;;;;;;;;;;2.40;99.90;;;;;;5035520;28;19925;-76
2022/12/07 02:28:36;;;;;;;;;;;2.50;99.90;;;;;;5037938;28;20029;-76
2022/12/07 02:31:11;;;;;;;;;;;3.30;99.90;;;;;;5033027;28;20312;-76
2022/12/07 02:33:41;;;;;;;;;;;2.50;99.90;;;;;;5033626;28;19920;-77
2022/12/07 02:36:13;;;;;;;;;;;3.30;99.90;;;;;;5050195;28;20007;-77
2022/12/07 02:38:47;;;;;;;;;;;2.50;99.90;;;;;;5051606;28;19939;-77
2022/12/07 02:41:18;;;;;;;;;;;2.50;99.90;;;;;;5029324;28;20458;-77
2022/12/07 02:43:49;;;;;;;;;;;2.90;99.90;;;;;;5034965;28;19920;-77
2022/12/07 02:46:17;;;;;;;;;;;2.50;99.90;;;;;;5046201;28;20294;-76
2022/12/07 02:48:43;;;;;;;;;;;2.80;99.90;;;;;;5055567;28;19928;-76
2022/12/07 02:51:09;;;;;;;;;;;3.20;99.90;;;;;;5045937;28;19947;-77
2022/12/07 02:53:36;;;;;;;;;;;3.10;99.90;;;;;;5029917;28;19920;-76
2022/12/07 02:56:20;;;;;;;;;;;2.50;99.90;;;;;;5047368;28;19921;-76
2022/12/07 02:59:05;;;;;;;;;;;2.50;99.90;;;;;;5038602;28;19929;-77
2022/12/07 03:01:30;;;;;;;;;;;2.50;99.90;;;;;;5047405;28;19924;-76
2022/12/07 03:04:06;;;;;;;;;;;2.40;99.90;;;;;;5055048;28;20235;-76
2022/12/07 03:06:35;;;;;;;;;;;2.40;99.90;;;;;;5039633;28;20252;-77
2022/12/07 03:09:03;;;;;;;;;;;2.40;99.90;;;;;;5063160;28;20024;-76
2022/12/07 03:11:40;;;;;;;;;;;2.40;99.90;;;;;;5053356;28;20549;-76
2022/12/07 03:14:13;;;;;;;;;;;2.40;99.90;;;;;;5057737;28;19928;-76
2022/12/07 03:17:00;;;;;;;;;;;2.40;99.90;;;;;;5035291;28;19929;-76
2022/12/07 03:19:27;;;;;;;;;;;2.40;99.90;;;;;;5035712;28;19921;-76
2022/12/07 03:22:04;;;;;;;;;;;3.60;99.90;;;;;;5050749;28;19929;-76
2022/12/07 03:24:33;;;;;;;;;;;2.40;99.90;;;;;;5052329;28;19975;-77
2022/12/07 03:27:15;;;;;;;;;;;2.40;99.90;;;;;;5038244;28;20436;-76
2022/12/07 03:29:44;;;;;;;;;;;2.40;99.90;;;;;;5054962;28;19932;-76
2022/12/07 03:32:33;;;;;;;;;;;3.10;99.90;;;;;;5038633;28;20374;-76
2022/12/07 03:35:09;;;;;;;;;;;2.40;99.90;;;;;;5028767;28;20003;-76
2022/12/07 03:37:43;;;;;;;;;;;2.60;99.90;;;;;;5038334;28;19920;-76
2022/12/07 03:40:25;;;;;;;;;;;2.70;99.90;;;;;;5039698;28;19921;-76
2022/12/07 03:42:51;;;;;;;;;;;2.70;99.90;;;;;;5053301;28;19921;-76
2022/12/07 03:45:17;;;;;;;;;;;2.80;99.90;;;;;;5054585;28;20015;-77
2022/12/07 03:47:50;;;;;;;;;;;2.80;99.90;;;;;;5051545;28;19925;-76
2022/12/07 03:50:16;;;;;;;;;;;2.80;99.90;;;;;;5047186;28;19932;-75
2022/12/07 03:52:44;;;;;;;;;;;2.90;99.90;;;;;;5038413;28;20393;-76
2022/12/07 03:55:19;;;;;;;;;;;2.70;99.90;;;;;;5036193;28;19927;-76
2022/12/07 03:57:47;;;;;;;;;;;2.70;99.90;;;;;;5035071;28;19921;-76
2022/12/07 04:00:13;;;;;;;;;;;2.70;99.90;;;;;;5054855;28;19927;-76
2022/12/07 04:02:38;;;;;;;;;;;2.70;99.90;;;;;;5043132;28;19939;-76
2022/12/07 04:05:04;;;;;;;;;;;3.70;99.90;;;;;;5037554;28;20778;-77
2022/12/07 04:07:30;;;;;;;;;;;2.60;99.90;;;;;;5020712;28;19990;-77
2022/12/07 04:09:56;;;;;;;;;;;2.60;99.90;;;;;;5049570;28;19976;-76
2022/12/07 04:12:21;;;;;;;;;;;2.60;99.90;;;;;;5024467;28;20453;-76
2022/12/07 04:14:47;;;;;;;;;;;2.60;99.90;;;;;;5037028;28;19921;-77
2022/12/07 04:17:13;;;;;;;;;;;2.70;99.90;;;;;;5053501;28;20067;-77
2022/12/07 04:19:38;;;;;;;;;;;2.90;99.90;;;;;;5034668;28;19924;-78
2022/12/07 04:22:04;;;;;;;;;;;2.50;99.90;;;;;;5050410;28;19928;-77
2022/12/07 04:24:30;;;;;;;;;;;3.00;99.90;;;;;;5051189;28;19976;-77
2022/12/07 04:26:55;;;;;;;;;;;3.10;99.90;;;;;;5034849;28;19971;-77
2022/12/07 04:29:21;;;;;;;;;;;2.50;99.90;;;;;;5049277;28;19924;-76
2022/12/07 04:31:47;;;;;;;;;;;2.50;99.90;;;;;;5033652;28;19929;-76
2022/12/07 04:34:13;;;;;;;;;;;2.50;99.90;;;;;;5041420;28;19927;-75
2022/12/07 04:36:39;;;;;;;;;;;2.50;99.90;;;;;;5033929;28;19929;-76
2022/12/07 04:39:05;;;;;;;;;;;2.50;99.90;;;;;;5052823;28;19965;-77
2022/12/07 04:41:31;;;;;;;;;;;2.40;99.90;;;;;;5052564;28;20436;-77
2022/12/07 04:43:58;;;;;;;;;;;2.90;99.90;;;;;;5054847;28;19925;-76
2022/12/07 04:46:24;;;;;;;;;;;2.40;99.90;;;;;;5036461;28;19929;-76
2022/12/07 04:48:50;;;;;;;;;;;2.30;99.90;;;;;;5054827;28;19921;-77
2022/12/07 04:51:18;;;;;;;;;;;2.80;99.90;;;;;;5052065;28;20007;-76
2022/12/07 04:53:44;;;;;;;;;;;2.20;99.90;;;;;;5060498;28;20019;-76
2022/12/07 04:56:10;;;;;;;;;;;2.20;99.90;;;;;;5018612;28;19933;-76
2022/12/07 04:58:35;;;;;;;;;;;2.80;99.90;;;;;;5053807;28;20050;-77
2022/12/07 05:01:01;;;;;;;;;;;2.00;99.90;;;;;;5027097;28;19921;-75
2022/12/07 05:03:26;;;;;;;;;;;2.00;99.90;;;;;;5046878;28;19920;-76
2022/12/07 05:05:52;;;;;;;;;;;1.90;99.90;;;;;;5042699;28;20141;-76
2022/12/07 05:08:17;;;;;;;;;;;1.90;99.90;;;;;;5020557;28;20370;-76
2022/12/07 05:10:43;;;;;;;;;;;1.90;99.90;;;;;;5030183;28;19925;-76
2022/12/07 05:13:09;;;;;;;;;;;1.80;99.90;;;;;;5034830;28;19968;-76
2022/12/07 05:15:34;;;;;;;;;;;1.80;99.90;;;;;;5035180;28;19921;-76
2022/12/07 05:18:00;;;;;;;;;;;1.80;99.90;;;;;;5049244;28;19936;-77
2022/12/07 05:20:25;;;;;;;;;;;2.20;99.90;;;;;;5048160;28;19941;-76
2022/12/07 05:22:51;;;;;;;;;;;1.80;99.90;;;;;;5045541;28;19966;-76
2022/12/07 05:25:16;;;;;;;;;;;1.70;99.90;;;;;;5036677;28;19967;-76
2022/12/07 05:27:42;;;;;;;;;;;1.70;99.90;;;;;;5038228;28;19920;-76
2022/12/07 05:30:08;;;;;;;;;;;1.70;99.90;;;;;;5036401;28;19931;-75
2022/12/07 05:32:33;;;;;;;;;;;1.70;99.90;;;;;;5052979;28;19975;-76
2022/12/07 05:34:59;;;;;;;;;;;1.70;99.90;;;;;;5056225;28;19943;-76
2022/12/07 05:37:24;;;;;;;;;;;2.20;99.90;;;;;;5020969;28;19921;-76
2022/12/07 05:39:50;;;;;;;;;;;3.50;99.90;;;;;;5036616;28;19920;-76
2022/12/07 05:42:16;;;;;;;;;;;2.50;99.90;;;;;;5052368;28;20425;-77
2022/12/07 05:44:43;;;;;;;;;;;1.90;99.90;;;;;;5035063;28;19921;-76
2022/12/07 05:47:09;;;;;;;;;;;1.90;99.90;;;;;;5031668;28;19948;-77
2022/12/07 05:49:35;;;;;;;;;;;2.70;99.90;;;;;;5043187;28;19929;-76
2022/12/07 05:52:00;;;;;;;;;;;2.10;99.90;;;;;;5053190;28;19921;-76
2022/12/07 05:54:26;;;;;;;;;;;2.10;99.90;;;;;;5036570;28;19998;-76
2022/12/07 05:56:52;;;;;;;;;;;2.10;99.90;;;;;;5043750;28;20381;-76
2022/12/07 05:59:23;;;;;;;;;;;2.10;99.90;;;;;;5034383;28;19920;-76
2022/12/07 06:01:53;;;;;;;;;;;2.00;99.90;;;;;;5034504;28;20428;-76
2022/12/07 06:04:19;;;;;;;;;;;2.00;99.90;;;;;;5053202;28;19972;-76
2022/12/07 06:06:45;;;;;;;;;;;2.70;99.90;;;;;;5052097;28;19927;-76
2022/12/07 06:09:12;;;;;;;;;;;2.30;99.90;;;;;;5051759;28;19933;-76
2022/12/07 06:14:22;;;;;;;;;;;1.90;99.90;;;;;;5053653;28;19943;-77
2022/12/07 06:16:48;;;;;;;;;;;1.80;99.90;;;;;;5024254;28;20374;-76
2022/12/07 06:19:14;;;;;;;;;;;1.80;99.90;;;;;;5028165;28;19920;-76
2022/12/07 06:21:42;;;;;;;;;;;1.80;99.90;;;;;;5051623;28;19924;-76
2022/12/07 06:24:10;;;;;;;;;;;1.70;99.90;;;;;;5052282;28;19921;-76
2022/12/07 06:26:35;;;;;;;;;;;1.70;99.90;;;;;;5051736;28;19929;-76
2022/12/07 06:29:01;;;;;;;;;;;1.70;99.90;;;;;;5032898;28;20357;-76
2022/12/07 06:31:27;;;;;;;;;;;1.70;99.90;;;;;;5051201;28;19920;-76
2022/12/07 06:33:56;;;;;;;;;;;1.70;99.90;;;;;;5047183;28;19974;-77
2022/12/07 06:36:22;;;;;;;;;;;2.40;99.90;;;;;;5039049;28;19921;-75
2022/12/07 06:38:47;;;;;;;;;;;2.10;99.90;;;;;;5036020;28;19934;-77
2022/12/07 06:41:13;;;;;;;;;;;1.70;99.90;;;;;;5032301;28;19951;-79
2022/12/07 06:43:38;;;;;;;;;;;1.70;99.90;;;;;;5016069;28;20425;-80
2022/12/07 06:46:04;;;;;;;;;;;1.70;99.90;;;;;;5038110;28;20280;-80
2022/12/07 06:48:29;;;;;;;;;;;2.10;99.90;;;;;;5037055;28;20602;-79
2022/12/07 06:50:55;;;;;;;;;;;3.30;99.90;;;;;;5036065;28;19933;-78
2022/12/07 06:53:21;;;;;;;;;;;2.00;99.90;;;;;;5040673;28;19928;-78
2022/12/07 06:55:47;;;;;;;;;;;1.60;99.90;;;;;;5033288;28;19927;-78
2022/12/07 06:58:12;;;;;;;;;;;1.50;99.90;;;;;;5035413;28;19929;-77
2022/12/07 07:00:38;;;;;;;;;;;1.50;99.90;;;;;;5054714;28;20002;-78
2022/12/07 07:03:03;;;;;;;;;;;1.90;99.90;;;;;;5033229;28;20441;-78
2022/12/07 07:05:29;;;;;;;;;;;2.00;99.90;;;;;;5037402;28;19921;-78
2022/12/07 07:07:55;;;;;;;;;;;2.50;99.90;;;;;;5054362;28;19967;-78
2022/12/07 07:10:20;;;;;;;;;;;1.50;99.90;;;;;;5038373;28;19924;-80
2022/12/07 07:12:46;;;;;;;;;;;1.50;99.90;;;;;;5043401;28;19929;-76
2022/12/07 07:15:11;;;;;;;;;;;1.50;99.90;;;;;;5041932;28;19927;-76
2022/12/07 07:17:37;;;;;;;;;;;1.60;99.90;;;;;;5053892;28;19927;-77
2022/12/07 07:20:03;;;;;;;;;;;2.40;99.90;;;;;;5049015;28;20306;-76
2022/12/07 07:22:29;;;;;;;;;;;1.70;99.90;;;;;;5049403;28;19943;-77
2022/12/07 07:24:54;;;;;;;;;;;1.70;99.90;;;;;;5054621;28;20289;-77
2022/12/07 07:27:20;;;;;;;;;;;1.70;99.90;;;;;;5032363;28;19921;-77
2022/12/07 07:29:45;;;;;;;;;;;2.10;99.90;;;;;;5038488;28;19932;-77
2022/12/07 07:32:12;;;;;;;;;;;2.20;99.90;;;;;;5032461;28;19927;-77
2022/12/07 07:34:37;;;;;;;;;;;1.80;99.90;;;;;;5049519;28;20340;-77
2022/12/07 07:37:03;;;;;;;;;;;1.90;99.90;;;;;;5032420;28;19924;-77
2022/12/07 07:39:28;;;;;;;;;;;3.80;99.90;;;;;;5054262;28;20293;-77
2022/12/07 07:41:54;;;;;;;;;;;1.90;99.90;;;;;;5038889;28;19970;-77
2022/12/07 07:44:19;;;;;;;;;;;3.10;99.90;;;;;;5032872;28;19978;-77
2022/12/07 07:46:45;;;;;;;;;;;1.90;99.90;;;;;;5036985;28;19931;-76
2022/12/07 07:49:11;;;;;;;;;;;2.50;99.90;;;;;;5026364;28;19929;-76
2022/12/07 07:51:36;;;;;;;;;;;1.90;99.90;;;;;;5057239;28;19928;-77
2022/12/07 07:54:02;;;;;;;;;;;3.40;99.90;;;;;;5027406;28;19921;-76
2022/12/07 07:56:28;;;;;;;;;;;1.90;99.90;;;;;;5056833;28;19943;-77
2022/12/07 07:58:54;;;;;;;;;;;1.80;99.90;;;;;;5036126;28;19921;-77
2022/12/07 08:01:19;;;;;;;;;;;2.50;99.90;;;;;;5052435;28;19927;-77
2022/12/07 08:03:48;;;;;;;;;;;1.80;99.90;;;;;;5046504;28;20400;-77
2022/12/07 08:06:14;;;;;;;;;;;1.90;99.90;;;;;;5057382;28;19927;-76
2022/12/07 08:08:39;;;;;;;;;;;1.90;99.90;;;;;;5051435;28;19921;-77
2022/12/07 08:11:06;;;;;;;;;;;2.10;99.90;;;;;;5036257;28;19971;-77
2022/12/07 08:13:31;;;;;;;;;;;2.10;99.90;;;;;;5052780;28;20290;-77
2022/12/07 08:15:57;;;;;;;;;;;2.80;99.90;;;;;;5045128;28;19921;-77
2022/12/07 08:18:23;;;;;;;;;;;2.10;99.90;;;;;;5052986;28;19920;-76
2022/12/07 08:20:48;;;;;;;;;;;2.20;99.90;;;;;;5040408;28;20003;-76
2022/12/07 08:23:14;;;;;;;;;;;2.20;99.90;;;;;;5036142;28;19921;-77
2022/12/07 08:25:40;;;;;;;;;;;2.30;99.90;;;;;;5047106;28;19920;-76
2022/12/07 08:28:05;;;;;;;;;;;2.30;99.90;;;;;;5040136;28;19921;-77
2022/12/07 08:30:31;;;;;;;;;;;2.20;99.90;;;;;;5046888;28;20003;-77
2022/12/07 08:32:57;;;;;;;;;;;2.20;99.90;;;;;;5057319;28;20392;-77
2022/12/07 08:35:23;;;;;;;;;;;3.30;99.90;;;;;;5041830;28;20394;-76
2022/12/07 08:37:48;;;;;;;;;;;2.10;99.90;;;;;;5053751;28;19920;-77
2022/12/07 08:40:18;;;;;;;;;;;2.10;99.90;;;;;;5036241;28;19921;-80
2022/12/07 08:42:48;;;;;;;;;;;2.00;99.90;;;;;;5047582;28;19931;-80
2022/12/07 08:45:14;;;;;;;;;;;2.10;99.90;;;;;;5053835;28;19932;-79
2022/12/07 08:47:55;;;;;;;;;;;2.10;99.90;;;;;;5062493;28;19927;-79
2022/12/07 08:50:21;;;;;;;;;;;2.10;99.90;;;;;;5034260;28;20013;-79
2022/12/07 08:52:57;;;;;;;;;;;2.20;99.90;;;;;;5036339;28;19960;-78
2022/12/07 08:55:23;;;;;;;;;;;2.40;99.90;;;;;;5055867;28;19925;-79
2022/12/07 08:57:49;;;;;;;;;;;2.50;99.90;;;;;;5039629;28;20019;-79
2022/12/07 09:00:16;;;;;;;;;;;2.60;99.90;;;;;;5052726;28;19921;-79
2022/12/07 09:02:43;;;;;;;;;;;3.30;99.90;;;;;;5037456;28;19920;-79
2022/12/07 09:05:09;;;;;;;;;;;4.10;99.90;;;;;;5062017;28;19942;-79
2022/12/07 09:07:35;;;;;;;;;;;5.10;99.90;;;;;;5035989;28;20397;-80
2022/12/07 09:10:01;;;;;;;;;;;5.20;99.90;;;;;;5049373;28;19939;-80
2022/12/07 09:12:26;;;;;;;;;;;5.90;99.90;;;;;;5036555;28;19928;-80
2022/12/07 09:14:52;;;;;;;;;;;6.80;99.90;;;;;;5051635;28;19928;-79
2022/12/07 09:17:17;;;;;;;;;;;6.30;99.90;;;;;;5035377;28;19921;-78
2022/12/07 09:19:43;;;;;;;;;;;6.20;99.90;;;;;;5051934;28;19974;-78
2022/12/07 09:22:09;;;;;;;;;;;6.10;99.90;;;;;;5041507;28;19924;-78
2022/12/07 09:24:34;;;;;;;;;;;5.90;99.90;;;;;;5035088;28;20375;-77
2022/12/07 09:27:00;;;;;;;;;;;5.40;99.90;;;;;;5054749;28;19929;-77
2022/12/07 09:29:25;;;;;;;;;;;5.20;99.90;;;;;;5016992;28;20011;-77
2022/12/07 09:31:51;;;;;;;;;;;4.70;99.90;;;;;;5050266;28;19921;-77
2022/12/07 09:34:17;;;;;;;;;;;4.40;99.90;;;;;;5049667;28;19928;-77
2022/12/07 09:36:43;;;;;;;;;;;4.10;99.90;;;;;;5033732;28;20430;-75
2022/12/07 09:39:09;;;;;;;;;;;3.80;99.90;;;;;;5051341;28;19952;-77
2022/12/07 09:41:37;;;;;;;;;;;4.00;99.90;;;;;;5054821;28;19929;-77
2022/12/07 09:44:09;;;;;;;;;;;4.00;99.90;;;;;;5051825;28;19921;-77
2022/12/07 09:46:39;;;;;;;;;;;4.00;99.90;;;;;;5054773;28;19921;-77
2022/12/07 09:49:09;;;;;;;;;;;4.00;99.90;;;;;;5046243;28;19928;-77
2022/12/07 09:51:35;;;;;;;;;;;4.20;99.90;;;;;;5062286;28;19920;-76
2022/12/07 09:54:01;;;;;;;;;;;4.30;99.90;;;;;;5055345;28;19930;-77
2022/12/07 09:56:28;;;;;;;;;;;4.40;99.90;;;;;;5037462;28;19921;-77
2022/12/07 09:59:00;;;;;;;;;;;4.30;99.90;;;;;;5033405;28;19925;-77
2022/12/07 10:01:28;;;;;;;;;;;4.20;99.90;;;;;;5048182;28;19925;-77
2022/12/07 10:04:10;;;;;;;;;;;4.10;99.90;;;;;;5048780;28;19978;-77
2022/12/07 10:06:35;;;;;;;;;;;4.20;99.90;;;;;;5048644;28;19921;-77
2022/12/07 10:09:08;;;;;;;;;;;4.30;99.90;;;;;;5055267;28;19928;-77
2022/12/07 10:11:34;;;;;;;;;;;4.40;99.90;;;;;;5051067;28;20024;-77
2022/12/07 10:14:10;;;;;;;;;;;4.10;99.90;;;;;;5037946;28;20616;-77
2022/12/07 10:16:40;;;;;;;;;;;4.30;99.90;;;;;;5044079;28;20004;-77
2022/12/07 10:19:25;;;;;;;;;;;4.20;99.90;;;;;;5054014;28;19927;-76
2022/12/07 10:22:05;;;;;;;;;;;4.20;99.90;;;;;;5051864;28;19924;-76
2022/12/07 10:24:31;;;;;;;;;;;4.20;99.90;;;;;;5041011;28;20731;-77
2022/12/07 10:26:56;;;;;;;;;;;4.20;99.90;;;;;;5043965;28;20452;-76
2022/12/07 10:29:30;;;;;;;;;;;4.20;99.90;;;;;;5053978;28;20413;-76
2022/12/07 10:31:59;;;;;;;;;;;4.10;99.90;;;;;;5050018;28;20388;-77
2022/12/07 10:34:25;;;;;;;;;;;4.10;99.90;;;;;;5047942;28;19928;-77
2022/12/07 10:36:51;;;;;;;;;;;4.60;99.90;;;;;;5051105;28;19921;-77
2022/12/07 10:39:17;;;;;;;;;;;4.10;99.90;;;;;;5050068;28;20014;-77
2022/12/07 10:41:56;;;;;;;;;;;4.10;99.90;;;;;;5047919;28;19921;-76
2022/12/07 10:44:23;;;;;;;;;;;4.20;99.90;;;;;;5050128;28;19928;-76
2022/12/07 10:46:58;;;;;;;;;;;4.20;99.90;;;;;;5049555;28;19995;-76
2022/12/07 10:49:47;;;;;;;;;;;4.10;99.90;;;;;;5049157;28;19932;-77
2022/12/07 10:52:19;;;;;;;;;;;4.10;99.90;;;;;;5032775;28;19929;-77
2022/12/07 10:55:00;;;;;;;;;;;4.10;99.90;;;;;;5048905;28;19979;-78
2022/12/07 10:57:46;;;;;;;;;;;4.10;99.90;;;;;;5033543;28;19924;-78
2022/12/07 11:00:22;;;;;;;;;;;4.10;99.90;;;;;;5052184;28;20031;-77
2022/12/07 11:02:54;;;;;;;;;;;4.10;99.90;;;;;;5050499;28;20602;-78
2022/12/07 11:05:29;;;;;;;;;;;4.10;99.90;;;;;;5050481;28;19936;-77
2022/12/07 11:07:54;;;;;;;;;;;4.20;99.90;;;;;;5059244;28;19974;-78
2022/12/07 11:10:28;;;;;;;;;;;4.20;99.90;;;;;;5055520;28;19925;-77
2022/12/07 11:12:53;;;;;;;;;;;4.20;99.90;;;;;;5036508;28;19960;-77
2022/12/07 11:15:19;;;;;;;;;;;4.50;99.90;;;;;;5034775;28;19921;-77
2022/12/07 11:18:00;;;;;;;;;;;4.20;99.90;;;;;;5044454;28;19967;-77
2022/12/07 11:20:36;;;;;;;;;;;4.20;99.90;;;;;;5041394;28;19921;-76
2022/12/07 11:23:04;;;;;;;;;;;4.20;99.90;;;;;;5038694;28;20374;-76
2022/12/07 11:25:33;;;;;;;;;;;4.20;99.90;;;;;;5067551;28;20011;-76
2022/12/07 11:27:58;;;;;;;;;;;4.20;99.90;;;;;;5046404;28;19921;-77
2022/12/07 11:30:33;;;;;;;;;;;4.20;99.90;;;;;;5057911;28;19981;-78
2022/12/07 11:33:18;;;;;;;;;;;4.20;99.90;;;;;;5056119;28;19963;-76
2022/12/07 11:35:58;;;;;;;;;;;4.20;99.90;;;;;;5045283;28;19921;-76
2022/12/07 11:38:27;;;;;;;;;;;4.20;99.90;;;;;;5056400;28;20644;-77
2022/12/07 11:40:56;;;;;;;;;;;4.20;99.90;;;;;;5057612;28;19960;-78
2022/12/07 11:43:26;;;;;;;;;;;4.80;99.90;;;;;;5053144;28;19921;-77
2022/12/07 11:46:02;;;;;;;;;;;4.20;99.90;;;;;;5055431;28;19960;-78
2022/12/07 11:48:40;;;;;;;;;;;4.30;99.90;;;;;;5058183;28;19925;-78
2022/12/07 11:51:07;;;;;;;;;;;4.30;99.90;;;;;;5059175;28;19932;-78
2022/12/07 11:53:33;;;;;;;;;;;4.30;99.90;;;;;;5055651;28;20036;-78
2022/12/07 11:55:58;;;;;;;;;;;4.80;99.90;;;;;;5055718;28;20012;-78
2022/12/07 11:58:27;;;;;;;;;;;4.40;99.90;;;;;;5038438;28;19968;-78
2022/12/07 12:01:07;;;;;;;;;;;4.30;99.90;;;;;;5065205;28;20411;-78
2022/12/07 12:03:34;;;;;;;;;;;4.50;99.90;;;;;;5045604;28;19921;-77
2022/12/07 12:05:59;;;;;;;;;;;4.30;99.90;;;;;;5060963;28;19963;-77
2022/12/07 12:08:30;;;;;;;;;;;4.30;99.90;;;;;;5040853;28;19921;-77
2022/12/07 12:11:00;;;;;;;;;;;4.60;99.90;;;;;;5040413;28;19932;-78
2022/12/07 12:13:47;;;;;;;;;;;4.20;99.90;;;;;;5041457;28;19967;-78
2022/12/07 12:16:13;;;;;;;;;;;4.20;99.90;;;;;;5059724;28;19924;-78
2022/12/07 12:18:45;;;;;;;;;;;4.20;99.90;;;;;;5048577;28;20328;-77
2022/12/07 12:21:12;;;;;;;;;;;4.30;99.90;;;;;;5064111;28;20023;-77
2022/12/07 12:23:41;;;;;;;;;;;4.40;99.90;;;;;;5054411;28;19921;-77
2022/12/07 12:26:13;;;;;;;;;;;4.50;99.90;;;;;;5053066;28;19927;-77
2022/12/07 12:28:49;;;;;;;;;;;4.60;99.90;;;;;;5060900;28;19925;-77
2022/12/07 12:31:21;;;;;;;;;;;4.70;99.90;;;;;;5040479;28;20294;-77
2022/12/07 12:34:00;;;;;;;;;;;4.80;99.90;;;;;;5057053;28;19928;-77
2022/12/07 12:36:45;;;;;;;;;;;4.80;99.90;;;;;;5056130;28;19925;-77
2022/12/07 12:39:15;;;;;;;;;;;4.90;99.90;;;;;;5038300;28;21701;-77
2022/12/07 12:42:05;;;;;;;;;;;4.90;99.90;;;;;;5047670;28;20399;-77
2022/12/07 12:44:31;;;;;;;;;;;4.90;99.90;;;;;;5062402;28;19921;-77
2022/12/07 12:47:16;;;;;;;;;;;5.00;99.90;;;;;;5059409;28;20039;-77
2022/12/07 12:49:44;;;;;;;;;;;5.00;99.90;;;;;;5037353;28;19928;-77
2022/12/07 12:52:13;;;;;;;;;;;5.00;99.90;;;;;;5046067;28;19921;-78
2022/12/07 12:54:38;;;;;;;;;;;5.00;99.90;;;;;;5059532;28;19924;-77
2022/12/07 12:57:15;;;;;;;;;;;5.30;99.90;;;;;;5019852;28;19971;-77
2022/12/07 12:59:52;;;;;;;;;;;5.00;99.90;;;;;;5052488;28;20472;-78
2022/12/07 13:02:25;;;;;;;;;;;4.90;99.90;;;;;;5056966;28;19987;-78
2022/12/07 13:04:57;;;;;;;;;;;4.90;99.90;;;;;;5052899;28;19921;-78
2022/12/07 13:07:41;;;;;;;;;;;4.90;99.90;;;;;;5052325;28;19969;-78
2022/12/07 13:10:22;;;;;;;;;;;4.80;99.90;;;;;;5062039;28;19982;-78
2022/12/07 13:13:07;;;;;;;;;;;4.80;99.90;;;;;;5061042;28;19953;-77
2022/12/07 13:15:35;;;;;;;;;;;4.80;99.90;;;;;;5055679;28;19932;-77
2022/12/07 13:18:02;;;;;;;;;;;4.70;99.90;;;;;;5060295;28;20405;-77
2022/12/07 13:20:43;;;;;;;;;;;4.80;99.90;;;;;;5053386;28;19924;-77
2022/12/07 13:23:09;;;;;;;;;;;4.70;99.90;;;;;;5049234;28;19971;-78
2022/12/07 13:25:41;;;;;;;;;;;5.10;99.90;;;;;;5053143;28;19948;-77
2022/12/07 13:28:17;;;;;;;;;;;4.80;99.90;;;;;;5063084;28;19928;-77
2022/12/07 13:30:45;;;;;;;;;;;4.90;99.90;;;;;;5066540;28;20291;-77
2022/12/07 13:33:12;;;;;;;;;;;5.00;99.90;;;;;;5041283;28;19929;-77
2022/12/07 13:35:37;;;;;;;;;;;5.10;99.90;;;;;;5049910;28;19920;-77
2022/12/07 13:38:18;;;;;;;;;;;5.30;99.90;;;;;;5039523;28;20451;-77
2022/12/07 13:40:58;;;;;;;;;;;5.00;99.90;;;;;;5042765;28;20397;-78
2022/12/07 13:43:24;;;;;;;;;;;4.90;99.90;;;;;;5051399;28;19924;-77
2022/12/07 13:45:55;;;;;;;;;;;4.90;99.90;;;;;;5020335;28;19921;-77
2022/12/07 13:48:24;;;;;;;;;;;4.90;99.90;;;;;;5053043;28;20148;-77
2022/12/07 13:50:54;;;;;;;;;;;4.80;99.90;;;;;;5046996;28;19928;-77
2022/12/07 13:53:20;;;;;;;;;;;4.70;99.90;;;;;;5053404;28;20297;-77
2022/12/07 13:55:46;;;;;;;;;;;4.70;99.90;;;;;;5053587;28;20017;-78
2022/12/07 13:58:12;;;;;;;;;;;5.10;99.90;;;;;;5054548;28;19920;-77
2022/12/07 14:00:37;;;;;;;;;;;5.00;99.90;;;;;;5034102;28;19944;-77
2022/12/07 14:03:23;;;;;;;;;;;4.40;99.90;;;;;;5042710;28;20343;-77
2022/12/07 14:06:03;;;;;;;;;;;4.30;99.90;;;;;;5031030;28;20023;-77
2022/12/07 14:08:29;;;;;;;;;;;4.20;99.90;;;;;;5040084;28;20002;-77
2022/12/07 14:10:56;;;;;;;;;;;4.60;99.90;;;;;;5030342;28;19925;-77
2022/12/07 14:13:27;;;;;;;;;;;4.20;99.90;;;;;;5033735;28;19924;-76
2022/12/07 14:15:53;;;;;;;;;;;4.10;99.90;;;;;;5034881;28;19949;-77
2022/12/07 14:18:27;;;;;;;;;;;4.10;99.90;;;;;;5049722;28;19920;-78
2022/12/07 14:21:02;;;;;;;;;;;4.10;99.90;;;;;;5048562;28;19953;-78
2022/12/07 14:23:28;;;;;;;;;;;4.00;99.90;;;;;;5032204;28;19925;-78
2022/12/07 14:25:53;;;;;;;;;;;4.00;99.90;;;;;;5021389;28;19951;-78
2022/12/07 14:28:25;;;;;;;;;;;4.00;99.90;;;;;;5054087;28;20398;-77
2022/12/07 14:30:50;;;;;;;;;;;3.90;99.90;;;;;;5045271;28;19925;-76
2022/12/07 14:33:17;;;;;;;;;;;3.90;99.90;;;;;;5046136;28;19932;-77
2022/12/07 14:35:42;;;;;;;;;;;3.90;99.90;;;;;;5028166;28;19925;-76
2022/12/07 14:38:08;;;;;;;;;;;4.10;99.90;;;;;;5043092;28;19925;-77
2022/12/07 14:40:33;;;;;;;;;;;3.90;99.90;;;;;;5030304;28;19925;-77
2022/12/07 14:43:04;;;;;;;;;;;3.90;99.90;;;;;;5061168;28;19924;-76